sensor_id;sensor_type;location;lat;lon;timestamp;P1;durP1;ratioP1;P2;durP2;ratioP2
29382;SDS011;16365;51.598;7.668;2022-11-15T00:00:55;18.15;;;9.15;;
29382;SDS011;16365;51.598;7.668;2022-11-15T00:03:23;13.90;;;8.77;;
29382;SDS011;16365;51.598;7.668;2022-11-15T00:05:51;14.05;;;9.38;;
29382;SDS011;16365;51.598;7.668;2022-11-15T00:08:18;15.45;;;9.32;;
29382;SDS011;16365;51.598;7.668;2022-11-15T00:10:55;16.52;;;8.70;;
29382;SDS011;16365;51.598;7.668;2022-11-15T00:13:22;16.98;;;8.82;;
29382;SDS011;16365;51.598;7.668;2022-11-15T00:15:48;16.15;;;9.68;;
29382;SDS011;16365;51.598;7.668;2022-11-15T00:18:15;16.55;;;9.50;;
29382;SDS011;16365;51.598;7.668;2022-11-15T00:20:42;14.80;;;8.85;;
29382;SDS011;16365;51.598;7.668;2022-11-15T00:23:09;18.40;;;8.88;;
29382;SDS011;16365;51.598;7.668;2022-11-15T00:25:35;14.57;;;8.68;;
29382;SDS011;16365;51.598;7.668;2022-11-15T00:28:03;14.93;;;9.00;;
29382;SDS011;16365;51.598;7.668;2022-11-15T00:30:30;14.63;;;8.60;;
29382;SDS011;16365;51.598;7.668;2022-11-15T00:33:00;13.65;;;8.50;;
29382;SDS011;16365;51.598;7.668;2022-11-15T00:35:28;15.73;;;8.80;;
29382;SDS011;16365;51.598;7.668;2022-11-15T00:37:55;14.05;;;8.60;;
29382;SDS011;16365;51.598;7.668;2022-11-15T00:40:21;15.80;;;8.43;;
29382;SDS011;16365;51.598;7.668;2022-11-15T00:42:48;17.73;;;9.35;;
29382;SDS011;16365;51.598;7.668;2022-11-15T00:45:15;16.83;;;9.18;;
29382;SDS011;16365;51.598;7.668;2022-11-15T00:47:45;14.88;;;8.77;;
29382;SDS011;16365;51.598;7.668;2022-11-15T00:50:12;13.88;;;8.35;;
29382;SDS011;16365;51.598;7.668;2022-11-15T00:52:40;16.52;;;7.53;;
29382;SDS011;16365;51.598;7.668;2022-11-15T00:55:08;15.88;;;9.00;;
29382;SDS011;16365;51.598;7.668;2022-11-15T00:57:40;15.15;;;8.02;;
29382;SDS011;16365;51.598;7.668;2022-11-15T01:00:07;15.52;;;8.68;;
29382;SDS011;16365;51.598;7.668;2022-11-15T01:02:34;18.60;;;9.43;;
29382;SDS011;16365;51.598;7.668;2022-11-15T01:05:00;15.38;;;9.15;;
29382;SDS011;16365;51.598;7.668;2022-11-15T01:07:27;16.98;;;9.52;;
29382;SDS011;16365;51.598;7.668;2022-11-15T01:09:55;13.98;;;9.05;;
29382;SDS011;16365;51.598;7.668;2022-11-15T01:12:22;12.02;;;7.82;;
29382;SDS011;16365;51.598;7.668;2022-11-15T01:14:49;14.13;;;8.15;;
29382;SDS011;16365;51.598;7.668;2022-11-15T01:17:16;14.77;;;8.88;;
29382;SDS011;16365;51.598;7.668;2022-11-15T01:19:44;14.60;;;8.30;;
29382;SDS011;16365;51.598;7.668;2022-11-15T01:22:10;15.32;;;8.77;;
29382;SDS011;16365;51.598;7.668;2022-11-15T01:24:36;15.60;;;8.65;;
29382;SDS011;16365;51.598;7.668;2022-11-15T01:27:03;14.70;;;8.23;;
29382;SDS011;16365;51.598;7.668;2022-11-15T01:29:30;13.30;;;8.10;;
29382;SDS011;16365;51.598;7.668;2022-11-15T01:31:56;18.27;;;8.85;;
29382;SDS011;16365;51.598;7.668;2022-11-15T01:34:22;11.25;;;7.55;;
29382;SDS011;16365;51.598;7.668;2022-11-15T01:36:49;14.50;;;7.93;;
29382;SDS011;16365;51.598;7.668;2022-11-15T01:39:15;12.25;;;8.02;;
29382;SDS011;16365;51.598;7.668;2022-11-15T01:41:42;13.80;;;7.15;;
29382;SDS011;16365;51.598;7.668;2022-11-15T01:47:06;14.20;;;7.60;;
29382;SDS011;16365;51.598;7.668;2022-11-15T01:49:38;17.45;;;7.50;;
29382;SDS011;16365;51.598;7.668;2022-11-15T01:52:09;13.60;;;7.35;;
29382;SDS011;16365;51.598;7.668;2022-11-15T01:54:38;14.30;;;7.47;;
29382;SDS011;16365;51.598;7.668;2022-11-15T01:57:06;11.45;;;6.72;;
29382;SDS011;16365;51.598;7.668;2022-11-15T01:59:37;13.02;;;7.20;;
29382;SDS011;16365;51.598;7.668;2022-11-15T02:02:06;11.45;;;7.20;;
29382;SDS011;16365;51.598;7.668;2022-11-15T02:04:34;10.82;;;6.38;;
29382;SDS011;16365;51.598;7.668;2022-11-15T02:07:05;14.63;;;7.18;;
29382;SDS011;16365;51.598;7.668;2022-11-15T02:09:36;13.10;;;7.32;;
29382;SDS011;16365;51.598;7.668;2022-11-15T02:12:03;10.98;;;7.00;;
29382;SDS011;16365;51.598;7.668;2022-11-15T02:14:31;14.33;;;6.47;;
29382;SDS011;16365;51.598;7.668;2022-11-15T02:19:40;15.45;;;7.57;;
29382;SDS011;16365;51.598;7.668;2022-11-15T02:28:00;10.93;;;6.95;;
29382;SDS011;16365;51.598;7.668;2022-11-15T02:30:49;13.60;;;7.20;;
29382;SDS011;16365;51.598;7.668;2022-11-15T02:36:09;13.18;;;7.13;;
29382;SDS011;16365;51.598;7.668;2022-11-15T02:41:27;15.38;;;6.28;;
29382;SDS011;16365;51.598;7.668;2022-11-15T02:44:08;11.23;;;6.43;;
29382;SDS011;16365;51.598;7.668;2022-11-15T02:46:50;10.48;;;6.20;;
29382;SDS011;16365;51.598;7.668;2022-11-15T02:49:52;11.00;;;5.93;;
29382;SDS011;16365;51.598;7.668;2022-11-15T02:52:24;10.38;;;6.60;;
29382;SDS011;16365;51.598;7.668;2022-11-15T02:54:53;10.63;;;6.27;;
29382;SDS011;16365;51.598;7.668;2022-11-15T03:01:02;13.32;;;6.85;;
29382;SDS011;16365;51.598;7.668;2022-11-15T03:06:49;8.50;;;5.35;;
29382;SDS011;16365;51.598;7.668;2022-11-15T03:12:07;13.07;;;5.82;;
29382;SDS011;16365;51.598;7.668;2022-11-15T03:14:42;9.40;;;6.13;;
29382;SDS011;16365;51.598;7.668;2022-11-15T03:17:27;10.85;;;6.63;;
29382;SDS011;16365;51.598;7.668;2022-11-15T03:19:57;10.55;;;6.78;;
29382;SDS011;16365;51.598;7.668;2022-11-15T03:22:25;13.18;;;7.88;;
29382;SDS011;16365;51.598;7.668;2022-11-15T03:24:59;14.07;;;7.38;;
29382;SDS011;16365;51.598;7.668;2022-11-15T03:27:34;11.25;;;6.22;;
29382;SDS011;16365;51.598;7.668;2022-11-15T03:30:06;14.15;;;6.85;;
29382;SDS011;16365;51.598;7.668;2022-11-15T03:32:35;14.02;;;6.00;;
29382;SDS011;16365;51.598;7.668;2022-11-15T03:35:07;11.30;;;6.68;;
29382;SDS011;16365;51.598;7.668;2022-11-15T03:37:57;14.40;;;6.55;;
29382;SDS011;16365;51.598;7.668;2022-11-15T03:40:28;11.85;;;6.07;;
29382;SDS011;16365;51.598;7.668;2022-11-15T03:46:05;10.73;;;5.80;;
29382;SDS011;16365;51.598;7.668;2022-11-15T03:48:48;8.93;;;5.53;;
29382;SDS011;16365;51.598;7.668;2022-11-15T03:51:17;10.73;;;6.50;;
29382;SDS011;16365;51.598;7.668;2022-11-15T03:53:45;14.02;;;6.35;;
29382;SDS011;16365;51.598;7.668;2022-11-15T03:56:12;13.93;;;6.45;;
29382;SDS011;16365;51.598;7.668;2022-11-15T03:58:38;12.73;;;6.38;;
29382;SDS011;16365;51.598;7.668;2022-11-15T04:01:04;10.82;;;6.32;;
29382;SDS011;16365;51.598;7.668;2022-11-15T04:03:31;11.35;;;6.78;;
29382;SDS011;16365;51.598;7.668;2022-11-15T04:05:58;9.63;;;6.28;;
29382;SDS011;16365;51.598;7.668;2022-11-15T04:08:24;12.07;;;6.20;;
29382;SDS011;16365;51.598;7.668;2022-11-15T04:10:51;10.43;;;6.28;;
29382;SDS011;16365;51.598;7.668;2022-11-15T04:13:17;11.98;;;6.03;;
29382;SDS011;16365;51.598;7.668;2022-11-15T04:15:43;13.90;;;7.25;;
29382;SDS011;16365;51.598;7.668;2022-11-15T04:18:10;12.93;;;6.80;;
29382;SDS011;16365;51.598;7.668;2022-11-15T04:20:36;9.02;;;5.80;;
29382;SDS011;16365;51.598;7.668;2022-11-15T04:23:21;12.05;;;5.35;;
29382;SDS011;16365;51.598;7.668;2022-11-15T04:26:14;9.60;;;5.65;;
29382;SDS011;16365;51.598;7.668;2022-11-15T04:28:43;7.82;;;5.57;;
29382;SDS011;16365;51.598;7.668;2022-11-15T04:31:29;8.27;;;5.68;;
29382;SDS011;16365;51.598;7.668;2022-11-15T04:33:55;7.30;;;5.07;;
29382;SDS011;16365;51.598;7.668;2022-11-15T04:36:22;8.18;;;4.93;;
29382;SDS011;16365;51.598;7.668;2022-11-15T04:39:07;8.40;;;5.22;;
29382;SDS011;16365;51.598;7.668;2022-11-15T04:41:34;11.85;;;5.35;;
29382;SDS011;16365;51.598;7.668;2022-11-15T04:44:01;13.85;;;5.50;;
29382;SDS011;16365;51.598;7.668;2022-11-15T04:46:27;8.20;;;5.60;;
29382;SDS011;16365;51.598;7.668;2022-11-15T04:48:54;11.57;;;5.97;;
29382;SDS011;16365;51.598;7.668;2022-11-15T04:51:24;9.10;;;5.35;;
29382;SDS011;16365;51.598;7.668;2022-11-15T04:53:51;7.82;;;5.50;;
29382;SDS011;16365;51.598;7.668;2022-11-15T04:56:17;8.88;;;5.72;;
29382;SDS011;16365;51.598;7.668;2022-11-15T04:58:43;11.73;;;5.57;;
29382;SDS011;16365;51.598;7.668;2022-11-15T05:01:11;8.13;;;4.90;;
29382;SDS011;16365;51.598;7.668;2022-11-15T05:03:41;8.02;;;5.30;;
29382;SDS011;16365;51.598;7.668;2022-11-15T05:06:26;10.38;;;4.95;;
29382;SDS011;16365;51.598;7.668;2022-11-15T05:08:53;14.38;;;5.47;;
29382;SDS011;16365;51.598;7.668;2022-11-15T05:11:20;9.65;;;7.05;;
29382;SDS011;16365;51.598;7.668;2022-11-15T05:13:46;8.95;;;5.72;;
29382;SDS011;16365;51.598;7.668;2022-11-15T05:16:13;9.98;;;6.28;;
29382;SDS011;16365;51.598;7.668;2022-11-15T05:18:40;9.77;;;5.90;;
29382;SDS011;16365;51.598;7.668;2022-11-15T05:21:07;9.10;;;5.80;;
29382;SDS011;16365;51.598;7.668;2022-11-15T05:23:35;12.88;;;6.03;;
29382;SDS011;16365;51.598;7.668;2022-11-15T05:26:03;7.53;;;6.03;;
29382;SDS011;16365;51.598;7.668;2022-11-15T05:28:34;10.23;;;6.20;;
29382;SDS011;16365;51.598;7.668;2022-11-15T05:31:02;9.60;;;5.90;;
29382;SDS011;16365;51.598;7.668;2022-11-15T05:33:30;9.60;;;5.75;;
29382;SDS011;16365;51.598;7.668;2022-11-15T05:36:09;9.60;;;5.90;;
29382;SDS011;16365;51.598;7.668;2022-11-15T05:38:45;10.68;;;5.22;;
29382;SDS011;16365;51.598;7.668;2022-11-15T05:43:40;9.00;;;5.47;;
29382;SDS011;16365;51.598;7.668;2022-11-15T05:48:35;8.30;;;5.28;;
29382;SDS011;16365;51.598;7.668;2022-11-15T05:51:03;7.45;;;5.30;;
29382;SDS011;16365;51.598;7.668;2022-11-15T05:53:31;6.63;;;4.65;;
29382;SDS011;16365;51.598;7.668;2022-11-15T05:55:58;8.52;;;5.50;;
29382;SDS011;16365;51.598;7.668;2022-11-15T05:58:24;8.23;;;5.22;;
29382;SDS011;16365;51.598;7.668;2022-11-15T06:00:51;6.22;;;4.70;;
29382;SDS011;16365;51.598;7.668;2022-11-15T06:03:17;8.35;;;4.90;;
29382;SDS011;16365;51.598;7.668;2022-11-15T06:05:44;6.28;;;4.57;;
29382;SDS011;16365;51.598;7.668;2022-11-15T06:08:10;7.70;;;5.05;;
29382;SDS011;16365;51.598;7.668;2022-11-15T06:10:37;8.10;;;4.80;;
29382;SDS011;16365;51.598;7.668;2022-11-15T06:13:04;7.53;;;4.40;;
29382;SDS011;16365;51.598;7.668;2022-11-15T06:15:31;6.97;;;4.65;;
29382;SDS011;16365;51.598;7.668;2022-11-15T06:17:58;6.88;;;4.50;;
29382;SDS011;16365;51.598;7.668;2022-11-15T06:20:25;8.05;;;5.28;;
29382;SDS011;16365;51.598;7.668;2022-11-15T06:22:59;8.90;;;4.78;;
29382;SDS011;16365;51.598;7.668;2022-11-15T06:25:28;7.00;;;4.22;;
29382;SDS011;16365;51.598;7.668;2022-11-15T06:27:56;6.13;;;4.32;;
29382;SDS011;16365;51.598;7.668;2022-11-15T06:30:24;6.20;;;4.22;;
29382;SDS011;16365;51.598;7.668;2022-11-15T06:32:57;7.05;;;4.43;;
29382;SDS011;16365;51.598;7.668;2022-11-15T06:35:25;6.30;;;4.40;;
29382;SDS011;16365;51.598;7.668;2022-11-15T06:37:51;6.07;;;4.57;;
29382;SDS011;16365;51.598;7.668;2022-11-15T06:40:18;7.03;;;4.70;;
29382;SDS011;16365;51.598;7.668;2022-11-15T06:42:44;7.53;;;4.55;;
29382;SDS011;16365;51.598;7.668;2022-11-15T06:45:10;8.30;;;4.53;;
29382;SDS011;16365;51.598;7.668;2022-11-15T06:47:44;7.43;;;4.28;;
29382;SDS011;16365;51.598;7.668;2022-11-15T06:50:11;6.15;;;4.22;;
29382;SDS011;16365;51.598;7.668;2022-11-15T06:52:38;7.85;;;4.38;;
29382;SDS011;16365;51.598;7.668;2022-11-15T06:55:04;9.32;;;4.82;;
29382;SDS011;16365;51.598;7.668;2022-11-15T06:57:31;9.70;;;4.20;;
29382;SDS011;16365;51.598;7.668;2022-11-15T06:59:58;5.18;;;4.00;;
29382;SDS011;16365;51.598;7.668;2022-11-15T07:02:25;7.80;;;4.05;;
29382;SDS011;16365;51.598;7.668;2022-11-15T07:04:51;5.40;;;3.53;;
29382;SDS011;16365;51.598;7.668;2022-11-15T07:07:17;6.35;;;3.63;;
29382;SDS011;16365;51.598;7.668;2022-11-15T07:09:44;5.75;;;3.45;;
29382;SDS011;16365;51.598;7.668;2022-11-15T07:12:10;5.55;;;3.55;;
29382;SDS011;16365;51.598;7.668;2022-11-15T07:14:37;6.40;;;3.30;;
29382;SDS011;16365;51.598;7.668;2022-11-15T07:17:04;4.60;;;3.00;;
29382;SDS011;16365;51.598;7.668;2022-11-15T07:19:31;6.17;;;3.30;;
29382;SDS011;16365;51.598;7.668;2022-11-15T07:21:58;5.80;;;3.20;;
29382;SDS011;16365;51.598;7.668;2022-11-15T07:24:24;5.63;;;3.30;;
29382;SDS011;16365;51.598;7.668;2022-11-15T07:26:50;6.97;;;2.88;;
29382;SDS011;16365;51.598;7.668;2022-11-15T07:29:17;5.82;;;2.83;;
29382;SDS011;16365;51.598;7.668;2022-11-15T07:31:43;3.83;;;2.38;;
29382;SDS011;16365;51.598;7.668;2022-11-15T07:34:10;2.80;;;2.30;;
29382;SDS011;16365;51.598;7.668;2022-11-15T07:36:37;4.13;;;2.28;;
29382;SDS011;16365;51.598;7.668;2022-11-15T07:39:03;3.65;;;2.20;;
29382;SDS011;16365;51.598;7.668;2022-11-15T07:41:30;5.13;;;2.47;;
29382;SDS011;16365;51.598;7.668;2022-11-15T07:43:57;2.95;;;2.15;;
29382;SDS011;16365;51.598;7.668;2022-11-15T07:46:23;3.08;;;2.38;;
29382;SDS011;16365;51.598;7.668;2022-11-15T07:48:50;2.78;;;1.75;;
29382;SDS011;16365;51.598;7.668;2022-11-15T07:51:16;5.63;;;2.22;;
29382;SDS011;16365;51.598;7.668;2022-11-15T07:53:43;1.85;;;1.50;;
29382;SDS011;16365;51.598;7.668;2022-11-15T07:56:09;5.00;;;2.20;;
29382;SDS011;16365;51.598;7.668;2022-11-15T07:58:36;3.28;;;2.20;;
29382;SDS011;16365;51.598;7.668;2022-11-15T08:01:06;3.13;;;2.00;;
29382;SDS011;16365;51.598;7.668;2022-11-15T08:03:35;2.75;;;1.70;;
29382;SDS011;16365;51.598;7.668;2022-11-15T08:06:03;4.97;;;2.10;;
29382;SDS011;16365;51.598;7.668;2022-11-15T08:08:30;2.40;;;1.77;;
29382;SDS011;16365;51.598;7.668;2022-11-15T08:10:59;1.90;;;1.80;;
29382;SDS011;16365;51.598;7.668;2022-11-15T08:13:26;4.57;;;1.90;;
29382;SDS011;16365;51.598;7.668;2022-11-15T08:15:57;2.63;;;1.90;;
29382;SDS011;16365;51.598;7.668;2022-11-15T08:18:25;4.75;;;1.88;;
29382;SDS011;16365;51.598;7.668;2022-11-15T08:20:51;3.33;;;1.92;;
29382;SDS011;16365;51.598;7.668;2022-11-15T08:23:18;4.10;;;1.95;;
29382;SDS011;16365;51.598;7.668;2022-11-15T08:25:44;4.30;;;1.65;;
29382;SDS011;16365;51.598;7.668;2022-11-15T08:28:11;2.47;;;1.52;;
29382;SDS011;16365;51.598;7.668;2022-11-15T08:30:38;2.80;;;1.70;;
29382;SDS011;16365;51.598;7.668;2022-11-15T08:33:11;3.00;;;1.80;;
29382;SDS011;16365;51.598;7.668;2022-11-15T08:35:41;2.67;;;1.55;;
29382;SDS011;16365;51.598;7.668;2022-11-15T08:38:09;4.88;;;1.88;;
29382;SDS011;16365;51.598;7.668;2022-11-15T08:40:36;3.08;;;1.60;;
29382;SDS011;16365;51.598;7.668;2022-11-15T08:43:03;8.48;;;1.88;;
29382;SDS011;16365;51.598;7.668;2022-11-15T08:45:32;3.53;;;2.30;;
29382;SDS011;16365;51.598;7.668;2022-11-15T08:48:01;3.28;;;1.85;;
29382;SDS011;16365;51.598;7.668;2022-11-15T08:50:29;3.92;;;1.50;;
29382;SDS011;16365;51.598;7.668;2022-11-15T08:52:56;2.63;;;1.70;;
29382;SDS011;16365;51.598;7.668;2022-11-15T08:55:23;2.55;;;1.58;;
29382;SDS011;16365;51.598;7.668;2022-11-15T08:57:50;5.30;;;1.83;;
29382;SDS011;16365;51.598;7.668;2022-11-15T09:00:16;2.30;;;1.58;;
29382;SDS011;16365;51.598;7.668;2022-11-15T09:02:43;3.03;;;1.73;;
29382;SDS011;16365;51.598;7.668;2022-11-15T09:05:10;3.00;;;1.50;;
29382;SDS011;16365;51.598;7.668;2022-11-15T09:07:36;2.63;;;1.42;;
29382;SDS011;16365;51.598;7.668;2022-11-15T09:10:03;2.45;;;1.60;;
29382;SDS011;16365;51.598;7.668;2022-11-15T09:12:30;3.25;;;1.50;;
29382;SDS011;16365;51.598;7.668;2022-11-15T09:14:56;2.70;;;1.55;;
29382;SDS011;16365;51.598;7.668;2022-11-15T09:17:24;2.50;;;1.58;;
29382;SDS011;16365;51.598;7.668;2022-11-15T09:19:50;3.17;;;1.23;;
29382;SDS011;16365;51.598;7.668;2022-11-15T09:22:17;4.05;;;1.60;;
29382;SDS011;16365;51.598;7.668;2022-11-15T09:24:44;6.68;;;1.50;;
29382;SDS011;16365;51.598;7.668;2022-11-15T09:27:10;4.03;;;1.30;;
29382;SDS011;16365;51.598;7.668;2022-11-15T09:29:37;2.05;;;1.30;;
29382;SDS011;16365;51.598;7.668;2022-11-15T09:32:04;3.72;;;1.67;;
29382;SDS011;16365;51.598;7.668;2022-11-15T09:34:30;3.42;;;1.40;;
29382;SDS011;16365;51.598;7.668;2022-11-15T09:36:57;1.80;;;1.40;;
29382;SDS011;16365;51.598;7.668;2022-11-15T09:39:23;2.03;;;1.25;;
29382;SDS011;16365;51.598;7.668;2022-11-15T09:42:12;2.53;;;1.23;;
29382;SDS011;16365;51.598;7.668;2022-11-15T09:44:54;4.05;;;1.35;;
29382;SDS011;16365;51.598;7.668;2022-11-15T09:52:53;3.25;;;1.70;;
29382;SDS011;16365;51.598;7.668;2022-11-15T09:55:21;2.50;;;1.48;;
29382;SDS011;16365;51.598;7.668;2022-11-15T09:58:03;4.15;;;1.35;;
29382;SDS011;16365;51.598;7.668;2022-11-15T10:00:42;3.75;;;1.63;;
29382;SDS011;16365;51.598;7.668;2022-11-15T10:03:16;2.58;;;1.13;;
29382;SDS011;16365;51.598;7.668;2022-11-15T10:05:47;1.95;;;1.27;;
29382;SDS011;16365;51.598;7.668;2022-11-15T10:08:37;3.92;;;1.15;;
29382;SDS011;16365;51.598;7.668;2022-11-15T10:11:17;2.30;;;1.30;;
29382;SDS011;16365;51.598;7.668;2022-11-15T10:14:05;4.22;;;1.40;;
29382;SDS011;16365;51.598;7.668;2022-11-15T10:16:59;4.47;;;1.52;;
29382;SDS011;16365;51.598;7.668;2022-11-15T10:19:52;3.60;;;1.45;;
29382;SDS011;16365;51.598;7.668;2022-11-15T10:22:35;3.00;;;1.08;;
29382;SDS011;16365;51.598;7.668;2022-11-15T10:27:43;3.58;;;1.50;;
29382;SDS011;16365;51.598;7.668;2022-11-15T10:30:21;1.33;;;1.13;;
29382;SDS011;16365;51.598;7.668;2022-11-15T10:32:48;1.75;;;1.10;;
29382;SDS011;16365;51.598;7.668;2022-11-15T10:35:25;3.53;;;1.33;;
29382;SDS011;16365;51.598;7.668;2022-11-15T10:38:08;2.92;;;1.20;;
29382;SDS011;16365;51.598;7.668;2022-11-15T10:40:36;4.10;;;1.42;;
29382;SDS011;16365;51.598;7.668;2022-11-15T10:45:37;2.03;;;1.20;;
29382;SDS011;16365;51.598;7.668;2022-11-15T10:50:41;5.32;;;1.27;;
29382;SDS011;16365;51.598;7.668;2022-11-15T10:53:17;3.05;;;1.30;;
29382;SDS011;16365;51.598;7.668;2022-11-15T10:55:48;4.93;;;1.23;;
29382;SDS011;16365;51.598;7.668;2022-11-15T11:01:15;4.63;;;1.15;;
29382;SDS011;16365;51.598;7.668;2022-11-15T11:04:00;4.78;;;1.27;;
29382;SDS011;16365;51.598;7.668;2022-11-15T11:06:53;2.25;;;1.17;;
29382;SDS011;16365;51.598;7.668;2022-11-15T11:09:32;4.38;;;1.02;;
29382;SDS011;16365;51.598;7.668;2022-11-15T11:12:00;3.72;;;1.30;;
29382;SDS011;16365;51.598;7.668;2022-11-15T11:14:28;1.65;;;1.08;;
29382;SDS011;16365;51.598;7.668;2022-11-15T11:17:03;3.38;;;1.23;;
29382;SDS011;16365;51.598;7.668;2022-11-15T11:20:15;5.68;;;1.38;;
29382;SDS011;16365;51.598;7.668;2022-11-15T11:25:50;2.72;;;1.20;;
29382;SDS011;16365;51.598;7.668;2022-11-15T11:28:40;3.72;;;1.23;;
29382;SDS011;16365;51.598;7.668;2022-11-15T11:31:32;2.05;;;1.20;;
29382;SDS011;16365;51.598;7.668;2022-11-15T11:36:53;4.80;;;1.08;;
29382;SDS011;16365;51.598;7.668;2022-11-15T11:39:52;3.67;;;1.30;;
29382;SDS011;16365;51.598;7.668;2022-11-15T11:42:34;2.78;;;1.27;;
29382;SDS011;16365;51.598;7.668;2022-11-15T11:47:40;2.80;;;1.35;;
29382;SDS011;16365;51.598;7.668;2022-11-15T11:50:18;3.08;;;1.23;;
29382;SDS011;16365;51.598;7.668;2022-11-15T11:55:36;3.80;;;1.40;;
29382;SDS011;16365;51.598;7.668;2022-11-15T12:00:54;2.67;;;0.90;;
29382;SDS011;16365;51.598;7.668;2022-11-15T12:06:04;2.03;;;1.10;;
29382;SDS011;16365;51.598;7.668;2022-11-15T12:08:59;2.38;;;1.08;;
29382;SDS011;16365;51.598;7.668;2022-11-15T12:11:50;1.60;;;1.10;;
29382;SDS011;16365;51.598;7.668;2022-11-15T12:17:14;1.98;;;0.93;;
29382;SDS011;16365;51.598;7.668;2022-11-15T12:19:45;1.30;;;0.95;;
29382;SDS011;16365;51.598;7.668;2022-11-15T12:22:16;3.28;;;1.70;;
29382;SDS011;16365;51.598;7.668;2022-11-15T12:24:50;2.53;;;1.23;;
29382;SDS011;16365;51.598;7.668;2022-11-15T12:29:57;5.53;;;1.15;;
29382;SDS011;16365;51.598;7.668;2022-11-15T12:32:34;4.05;;;1.30;;
29382;SDS011;16365;51.598;7.668;2022-11-15T12:35:20;1.33;;;0.98;;
29382;SDS011;16365;51.598;7.668;2022-11-15T12:37:54;1.85;;;1.10;;
29382;SDS011;16365;51.598;7.668;2022-11-15T12:43:00;2.72;;;0.90;;
29382;SDS011;16365;51.598;7.668;2022-11-15T12:45:53;2.70;;;0.90;;
29382;SDS011;16365;51.598;7.668;2022-11-15T12:48:44;1.70;;;0.85;;
29382;SDS011;16365;51.598;7.668;2022-11-15T12:51:05;2.72;;;0.90;;
29382;SDS011;16365;51.598;7.668;2022-11-15T12:53:33;0.98;;;0.80;;
29382;SDS011;16365;51.598;7.668;2022-11-15T12:58:50;6.38;;;0.90;;
29382;SDS011;16365;51.598;7.668;2022-11-15T13:06:46;3.58;;;0.75;;
29382;SDS011;16365;51.598;7.668;2022-11-15T13:14:49;2.75;;;0.80;;
29382;SDS011;16365;51.598;7.668;2022-11-15T13:22:19;3.05;;;0.73;;
29382;SDS011;16365;51.598;7.668;2022-11-15T13:25:04;2.15;;;0.93;;
29382;SDS011;16365;51.598;7.668;2022-11-15T13:27:50;5.32;;;1.00;;
29382;SDS011;16365;51.598;7.668;2022-11-15T13:30:22;9.18;;;1.15;;
29382;SDS011;16365;51.598;7.668;2022-11-15T13:32:50;1.98;;;1.00;;
29382;SDS011;16365;51.598;7.668;2022-11-15T13:35:25;1.98;;;0.75;;
29382;SDS011;16365;51.598;7.668;2022-11-15T13:37:54;6.00;;;0.93;;
29382;SDS011;16365;51.598;7.668;2022-11-15T13:42:55;2.65;;;1.10;;
29382;SDS011;16365;51.598;7.668;2022-11-15T13:45:23;2.67;;;1.05;;
29382;SDS011;16365;51.598;7.668;2022-11-15T13:47:51;4.97;;;1.20;;
29382;SDS011;16365;51.598;7.668;2022-11-15T13:50:30;4.05;;;1.00;;
29382;SDS011;16365;51.598;7.668;2022-11-15T13:53:02;4.82;;;1.38;;
29382;SDS011;16365;51.598;7.668;2022-11-15T13:55:30;4.05;;;0.90;;
29382;SDS011;16365;51.598;7.668;2022-11-15T13:58:02;3.28;;;1.00;;
29382;SDS011;16365;51.598;7.668;2022-11-15T14:00:36;3.03;;;0.90;;
29382;SDS011;16365;51.598;7.668;2022-11-15T14:05:46;1.90;;;0.82;;
29382;SDS011;16365;51.598;7.668;2022-11-15T14:08:33;3.30;;;0.90;;
29382;SDS011;16365;51.598;7.668;2022-11-15T14:11:19;4.82;;;1.38;;
29382;SDS011;16365;51.598;7.668;2022-11-15T14:14:27;6.03;;;0.93;;
29382;SDS011;16365;51.598;7.668;2022-11-15T14:16:51;2.28;;;0.90;;
29382;SDS011;16365;51.598;7.668;2022-11-15T14:24:34;2.55;;;0.98;;
29382;SDS011;16365;51.598;7.668;2022-11-15T14:29:53;14.90;;;1.52;;
29382;SDS011;16365;51.598;7.668;2022-11-15T14:34:57;4.22;;;0.90;;
29382;SDS011;16365;51.598;7.668;2022-11-15T14:37:28;4.50;;;1.27;;
29382;SDS011;16365;51.598;7.668;2022-11-15T14:39:59;4.43;;;1.10;;
29382;SDS011;16365;51.598;7.668;2022-11-15T14:42:25;3.60;;;1.10;;
29382;SDS011;16365;51.598;7.668;2022-11-15T14:44:52;3.60;;;1.30;;
29382;SDS011;16365;51.598;7.668;2022-11-15T14:47:19;5.97;;;1.35;;
29382;SDS011;16365;51.598;7.668;2022-11-15T14:49:45;4.95;;;1.25;;
29382;SDS011;16365;51.598;7.668;2022-11-15T14:52:28;2.20;;;1.73;;
29382;SDS011;16365;51.598;7.668;2022-11-15T14:55:00;6.53;;;1.60;;
29382;SDS011;16365;51.598;7.668;2022-11-15T14:57:37;4.10;;;1.35;;
29382;SDS011;16365;51.598;7.668;2022-11-15T15:00:04;2.33;;;1.23;;
29382;SDS011;16365;51.598;7.668;2022-11-15T15:02:31;2.92;;;1.40;;
29382;SDS011;16365;51.598;7.668;2022-11-15T15:04:58;3.30;;;1.20;;
29382;SDS011;16365;51.598;7.668;2022-11-15T15:07:28;5.80;;;2.97;;
29382;SDS011;16365;51.598;7.668;2022-11-15T15:09:54;13.98;;;4.97;;
29382;SDS011;16365;51.598;7.668;2022-11-15T15:12:41;22.80;;;9.80;;
29382;SDS011;16365;51.598;7.668;2022-11-15T15:15:12;26.23;;;10.25;;
29382;SDS011;16365;51.598;7.668;2022-11-15T15:17:43;17.42;;;8.10;;
29382;SDS011;16365;51.598;7.668;2022-11-15T15:20:12;12.73;;;4.40;;
29382;SDS011;16365;51.598;7.668;2022-11-15T15:22:41;4.32;;;2.33;;
29382;SDS011;16365;51.598;7.668;2022-11-15T15:25:15;6.20;;;2.38;;
29382;SDS011;16365;51.598;7.668;2022-11-15T15:27:47;4.57;;;1.85;;
29382;SDS011;16365;51.598;7.668;2022-11-15T15:30:13;6.45;;;1.45;;
29382;SDS011;16365;51.598;7.668;2022-11-15T15:32:40;3.42;;;1.67;;
29382;SDS011;16365;51.598;7.668;2022-11-15T15:35:07;5.07;;;1.50;;
29382;SDS011;16365;51.598;7.668;2022-11-15T15:37:36;5.15;;;2.60;;
29382;SDS011;16365;51.598;7.668;2022-11-15T15:40:03;6.03;;;2.72;;
29382;SDS011;16365;51.598;7.668;2022-11-15T15:42:36;9.27;;;2.00;;
29382;SDS011;16365;51.598;7.668;2022-11-15T15:45:03;3.35;;;1.85;;
29382;SDS011;16365;51.598;7.668;2022-11-15T15:47:31;4.78;;;2.10;;
29382;SDS011;16365;51.598;7.668;2022-11-15T15:49:57;7.57;;;2.15;;
29382;SDS011;16365;51.598;7.668;2022-11-15T15:52:24;4.03;;;2.33;;
29382;SDS011;16365;51.598;7.668;2022-11-15T15:54:51;5.70;;;1.80;;
29382;SDS011;16365;51.598;7.668;2022-11-15T15:57:17;2.97;;;1.73;;
29382;SDS011;16365;51.598;7.668;2022-11-15T15:59:45;4.43;;;1.77;;
29382;SDS011;16365;51.598;7.668;2022-11-15T16:02:11;5.00;;;1.83;;
29382;SDS011;16365;51.598;7.668;2022-11-15T16:04:38;8.80;;;1.98;;
29382;SDS011;16365;51.598;7.668;2022-11-15T16:07:05;7.65;;;1.80;;
29382;SDS011;16365;51.598;7.668;2022-11-15T16:09:38;6.53;;;1.73;;
29382;SDS011;16365;51.598;7.668;2022-11-15T16:12:31;4.25;;;1.55;;
29382;SDS011;16365;51.598;7.668;2022-11-15T16:15:00;4.00;;;1.80;;
29382;SDS011;16365;51.598;7.668;2022-11-15T16:17:30;6.30;;;3.20;;
29382;SDS011;16365;51.598;7.668;2022-11-15T16:20:01;5.97;;;2.78;;
29382;SDS011;16365;51.598;7.668;2022-11-15T16:22:28;6.20;;;3.50;;
29382;SDS011;16365;51.598;7.668;2022-11-15T16:24:55;4.45;;;2.65;;
29382;SDS011;16365;51.598;7.668;2022-11-15T16:27:23;5.63;;;1.77;;
29382;SDS011;16365;51.598;7.668;2022-11-15T16:29:49;5.63;;;2.10;;
29382;SDS011;16365;51.598;7.668;2022-11-15T16:32:16;6.80;;;2.65;;
29382;SDS011;16365;51.598;7.668;2022-11-15T16:34:43;5.00;;;2.10;;
29382;SDS011;16365;51.598;7.668;2022-11-15T16:37:21;9.45;;;3.55;;
29382;SDS011;16365;51.598;7.668;2022-11-15T16:39:49;3.92;;;2.75;;
29382;SDS011;16365;51.598;7.668;2022-11-15T16:42:22;3.25;;;1.77;;
29382;SDS011;16365;51.598;7.668;2022-11-15T16:44:48;4.93;;;2.03;;
29382;SDS011;16365;51.598;7.668;2022-11-15T16:47:18;3.28;;;1.70;;
29382;SDS011;16365;51.598;7.668;2022-11-15T16:49:45;4.72;;;2.08;;
29382;SDS011;16365;51.598;7.668;2022-11-15T16:52:12;4.70;;;1.88;;
29382;SDS011;16365;51.598;7.668;2022-11-15T16:54:45;7.18;;;1.90;;